createdAt,value
2022-08-23T00:00:13.402Z,3.20
2022-08-23T00:05:31.448Z,3.90
2022-08-23T00:07:59.804Z,4.30
2022-08-23T00:10:28.599Z,3.90
2022-08-23T00:12:56.686Z,4.30
2022-08-23T00:15:25.498Z,4.00
2022-08-23T00:17:53.600Z,4.00
2022-08-23T00:20:21.728Z,4.10
2022-08-23T00:22:49.647Z,3.70
2022-08-23T00:25:18.346Z,3.80
2022-08-23T00:27:46.238Z,3.90
2022-08-23T00:30:15.569Z,4.10
2022-08-23T00:32:45.466Z,3.90
2022-08-23T00:35:23.486Z,3.80
2022-08-23T00:38:33.660Z,4.10
2022-08-23T00:40:51.235Z,4.00
2022-08-23T00:43:46.284Z,3.90
2022-08-23T00:47:02.543Z,3.80
2022-08-23T00:49:33.611Z,3.60
2022-08-23T00:52:08.419Z,3.60
2022-08-23T00:54:39.679Z,3.50
2022-08-23T00:57:14.714Z,3.30
2022-08-23T01:02:11.815Z,3.50
2022-08-23T01:04:50.453Z,3.40
2022-08-23T01:07:46.842Z,3.70
2022-08-23T01:10:39.798Z,3.50
2022-08-23T01:13:12.948Z,4.10
2022-08-23T01:16:13.821Z,3.60
2022-08-23T01:18:43.614Z,3.90
2022-08-23T01:21:22.010Z,3.70
2022-08-23T01:23:55.799Z,3.90
2022-08-23T01:26:25.462Z,3.60
2022-08-23T01:28:54.826Z,3.40
2022-08-23T01:31:23.984Z,3.70
2022-08-23T01:33:58.954Z,3.50
2022-08-23T01:36:28.506Z,4.10
2022-08-23T01:38:56.687Z,3.60
2022-08-23T01:41:25.019Z,4.00
2022-08-23T01:43:53.548Z,3.80
2022-08-23T01:46:25.136Z,4.00
2022-08-23T01:48:58.643Z,4.20
2022-08-23T01:51:31.133Z,4.10
2022-08-23T01:53:59.655Z,4.90
2022-08-23T01:56:38.845Z,3.60
2022-08-23T01:59:12.563Z,3.80
2022-08-23T02:01:53.945Z,3.60
2022-08-23T02:04:22.849Z,3.50
2022-08-23T02:06:50.856Z,3.50
2022-08-23T02:09:25.765Z,4.10
2022-08-23T02:11:58.320Z,3.70
2022-08-23T02:14:26.498Z,4.30
2022-08-23T02:17:04.304Z,4.10
2022-08-23T02:19:35.395Z,4.70
2022-08-23T02:22:05.782Z,4.40
2022-08-23T02:24:34.774Z,3.90
2022-08-23T02:27:05.345Z,3.70
2022-08-23T02:29:39.370Z,3.70
2022-08-23T02:32:10.827Z,3.60
2022-08-23T02:34:41.080Z,4.00
2022-08-23T02:37:11.128Z,3.70
2022-08-23T02:39:41.068Z,4.00
2022-08-23T02:42:11.646Z,3.40
2022-08-23T02:44:41.474Z,3.50
2022-08-23T02:47:12.057Z,3.20
2022-08-23T02:49:42.671Z,3.80
2022-08-23T02:52:11.018Z,3.60
2022-08-23T02:54:39.258Z,4.40
2022-08-23T02:57:07.328Z,4.30
2022-08-23T02:59:35.574Z,4.10
2022-08-23T03:02:03.595Z,4.00
2022-08-23T03:04:36.009Z,4.00
2022-08-23T03:07:04.462Z,4.20
2022-08-23T03:09:32.929Z,3.90
2022-08-23T03:12:01.003Z,4.90
2022-08-23T03:14:29.138Z,3.70
2022-08-23T03:16:59.463Z,3.60
2022-08-23T03:19:27.945Z,3.60
2022-08-23T03:21:56.226Z,3.40
2022-08-23T03:24:25.054Z,3.60
2022-08-23T03:26:54.015Z,3.70
2022-08-23T03:29:22.593Z,4.50
2022-08-23T03:32:00.910Z,3.40
2022-08-23T03:34:30.133Z,3.80
2022-08-23T03:36:59.297Z,3.90
2022-08-23T03:39:27.495Z,3.70
2022-08-23T03:41:56.241Z,3.70
2022-08-23T03:44:24.334Z,3.40
2022-08-23T03:46:52.324Z,3.70
2022-08-23T03:49:21.972Z,4.30
2022-08-23T03:51:54.284Z,3.50
2022-08-23T03:54:23.044Z,3.80
2022-08-23T03:57:00.668Z,3.40
2022-08-23T03:59:34.017Z,3.60
2022-08-23T04:02:02.391Z,3.90
2022-08-23T04:04:30.932Z,4.20
2022-08-23T04:07:22.116Z,4.00
2022-08-23T04:09:55.273Z,4.40
2022-08-23T04:12:26.049Z,4.20
2022-08-23T04:14:54.226Z,4.60
2022-08-23T04:17:23.014Z,4.20
2022-08-23T04:19:52.542Z,3.80
2022-08-23T04:22:21.383Z,4.00
2022-08-23T04:24:49.637Z,3.70
2022-08-23T04:27:18.244Z,3.40
2022-08-23T04:29:47.068Z,4.20
2022-08-23T04:32:26.444Z,4.20
2022-08-23T04:34:57.800Z,3.90
2022-08-23T04:37:26.400Z,3.90
2022-08-23T04:40:12.964Z,4.00
2022-08-23T04:42:43.932Z,4.10
2022-08-23T04:45:12.694Z,4.10
2022-08-23T04:47:45.029Z,4.00
2022-08-23T04:50:13.826Z,4.10
2022-08-23T04:53:12.246Z,3.90
2022-08-23T04:55:50.777Z,4.40
2022-08-23T04:58:19.650Z,4.40
2022-08-23T05:00:52.484Z,5.30
2022-08-23T05:03:25.935Z,3.90
2022-08-23T05:05:55.529Z,3.40
2022-08-23T05:08:28.387Z,3.60
2022-08-23T05:11:00.546Z,4.10
2022-08-23T05:13:30.218Z,4.00
2022-08-23T05:16:01.061Z,4.00
2022-08-23T05:18:33.566Z,4.30
2022-08-23T05:21:03.145Z,4.30
2022-08-23T05:23:32.214Z,4.60
2022-08-23T05:26:11.800Z,4.20
2022-08-23T05:28:45.181Z,3.90
2022-08-23T05:31:25.953Z,4.50
2022-08-23T05:33:56.203Z,4.30
2022-08-23T05:36:30.411Z,3.90
2022-08-23T05:38:59.035Z,3.90
2022-08-23T05:41:38.034Z,4.50
2022-08-23T05:44:10.615Z,3.30
2022-08-23T05:46:42.350Z,3.40
2022-08-23T05:49:22.478Z,4.50
2022-08-23T05:51:51.920Z,4.10
2022-08-23T05:54:21.335Z,3.40
2022-08-23T05:57:04.582Z,3.90
2022-08-23T05:59:33.121Z,3.50
2022-08-23T06:02:02.353Z,3.40
2022-08-23T06:04:31.476Z,3.60
2022-08-23T06:06:59.758Z,3.50
2022-08-23T06:09:28.500Z,3.20
2022-08-23T06:11:56.769Z,3.50
2022-08-23T06:14:25.098Z,3.40
2022-08-23T06:16:56.054Z,3.40
2022-08-23T06:19:27.509Z,3.60
2022-08-23T06:22:21.960Z,3.00
2022-08-23T06:24:50.543Z,3.80
2022-08-23T06:27:18.963Z,3.00
2022-08-23T06:29:48.708Z,3.20
2022-08-23T06:32:40.062Z,2.90
2022-08-23T06:35:37.791Z,3.00
2022-08-23T06:38:19.612Z,3.80
2022-08-23T06:40:48.220Z,3.00
2022-08-23T06:43:29.447Z,3.10
2022-08-23T06:46:28.269Z,3.00
2022-08-23T06:48:59.717Z,3.60
2022-08-23T06:51:31.031Z,3.50
2022-08-23T06:54:38.856Z,3.30
2022-08-23T06:57:24.010Z,3.70
2022-08-23T07:00:22.513Z,4.00
2022-08-23T07:03:17.793Z,3.90
2022-08-23T07:06:05.337Z,4.20
2022-08-23T07:08:36.343Z,3.70
2022-08-23T07:11:05.261Z,4.60
2022-08-23T07:13:33.468Z,5.60
2022-08-23T07:16:03.972Z,4.30
2022-08-23T07:18:34.086Z,3.70
2022-08-23T07:21:05.342Z,3.50
2022-08-23T07:23:35.207Z,3.70
2022-08-23T07:26:15.559Z,4.10
2022-08-23T07:28:45.092Z,4.20
2022-08-23T07:31:23.950Z,4.10
2022-08-23T07:33:52.326Z,4.10
2022-08-23T07:36:23.488Z,4.20
2022-08-23T07:38:53.503Z,4.00
2022-08-23T07:41:24.926Z,4.30
2022-08-23T07:43:55.184Z,6.10
2022-08-23T07:46:23.307Z,5.90
2022-08-23T07:48:54.837Z,7.20
2022-08-23T07:51:36.103Z,6.20
2022-08-23T07:54:07.536Z,7.60
2022-08-23T07:56:41.891Z,6.30
2022-08-23T07:59:18.819Z,6.40
2022-08-23T08:02:05.931Z,6.60
2022-08-23T08:04:36.066Z,4.70
2022-08-23T08:07:18.784Z,4.60
2022-08-23T08:09:49.993Z,4.60
2022-08-23T08:12:18.542Z,4.20
2022-08-23T08:14:48.597Z,3.80
2022-08-23T08:17:18.645Z,3.90
2022-08-23T08:20:04.415Z,3.90
2022-08-23T08:22:35.609Z,3.80
2022-08-23T08:25:22.274Z,3.90
2022-08-23T08:27:51.131Z,3.80
2022-08-23T08:30:19.401Z,3.70
2022-08-23T08:32:47.814Z,3.90
2022-08-23T08:35:16.769Z,3.40
2022-08-23T08:37:45.577Z,3.90
2022-08-23T08:40:23.648Z,3.20
2022-08-23T08:43:28.601Z,3.80
2022-08-23T08:46:18.276Z,3.50
2022-08-23T08:48:52.590Z,3.40
2022-08-23T08:51:47.284Z,3.60
2022-08-23T08:54:22.953Z,3.80
2022-08-23T08:56:56.135Z,3.30
2022-08-23T08:59:42.853Z,3.40
2022-08-23T09:05:06.020Z,3.10
2022-08-23T09:07:50.374Z,3.50
2022-08-23T09:10:46.758Z,3.00
2022-08-23T09:13:32.464Z,3.10
2022-08-23T09:16:29.480Z,3.10
2022-08-23T09:19:01.903Z,3.00
2022-08-23T09:21:41.156Z,3.30
2022-08-23T09:24:10.210Z,2.90
2022-08-23T09:26:52.063Z,2.50
2022-08-23T09:29:30.173Z,3.30
2022-08-23T09:32:02.768Z,3.90
2022-08-23T09:37:13.881Z,3.30
2022-08-23T09:39:46.161Z,3.60
2022-08-23T09:42:36.096Z,3.20
2022-08-23T09:45:06.666Z,2.90
2022-08-23T09:47:41.777Z,2.80
2022-08-23T09:50:39.528Z,3.10
2022-08-23T09:53:14.924Z,3.40
2022-08-23T09:55:51.646Z,3.20
2022-08-23T09:58:40.909Z,3.50
2022-08-23T10:01:20.585Z,3.10
2022-08-23T10:04:14.596Z,3.40
2022-08-23T10:06:46.446Z,3.60
2022-08-23T10:09:31.868Z,3.40
2022-08-23T10:12:01.641Z,3.40
2022-08-23T10:14:33.944Z,2.80
2022-08-23T10:17:20.958Z,3.50
2022-08-23T10:20:06.122Z,3.70
2022-08-23T10:22:52.366Z,3.30
2022-08-23T10:25:48.301Z,3.70
2022-08-23T10:28:47.845Z,3.30
2022-08-23T10:31:32.303Z,3.40
2022-08-23T10:34:18.967Z,2.70
2022-08-23T10:37:29.656Z,3.10
2022-08-23T10:40:11.357Z,3.40
2022-08-23T10:42:43.498Z,3.30
2022-08-23T10:45:25.709Z,3.50
2022-08-23T10:48:11.149Z,3.80
2022-08-23T10:50:55.465Z,3.20
2022-08-23T10:53:35.584Z,3.20
2022-08-23T10:56:08.516Z,2.80
2022-08-23T10:58:50.448Z,3.20
2022-08-23T11:01:26.500Z,2.80
2022-08-23T11:04:04.330Z,3.70
2022-08-23T11:06:47.461Z,3.10
2022-08-23T11:09:18.830Z,3.20
2022-08-23T11:11:50.315Z,3.60
2022-08-23T11:14:30.926Z,3.20
2022-08-23T11:17:03.753Z,3.00
2022-08-23T11:19:59.013Z,3.20
2022-08-23T11:22:32.028Z,3.40
2022-08-23T11:25:01.982Z,2.90
2022-08-23T11:27:44.593Z,3.30
2022-08-23T11:30:34.411Z,3.60
2022-08-23T11:33:48.536Z,3.30
2022-08-23T11:36:22.003Z,3.20
2022-08-23T11:38:50.312Z,3.30
2022-08-23T11:41:18.930Z,3.30
2022-08-23T11:43:50.337Z,3.20
2022-08-23T11:46:27.596Z,3.20
2022-08-23T11:49:31.236Z,3.50
2022-08-23T11:52:20.692Z,3.10
2022-08-23T11:55:07.628Z,3.20
2022-08-23T11:58:05.688Z,3.10
2022-08-23T12:00:52.637Z,3.30
2022-08-23T12:03:34.054Z,3.20
2022-08-23T12:06:21.354Z,3.10
2022-08-23T12:09:02.145Z,3.00
2022-08-23T12:11:55.116Z,3.50
2022-08-23T12:14:32.756Z,3.60
2022-08-23T12:17:04.070Z,3.70
2022-08-23T12:19:41.446Z,3.50
2022-08-23T12:22:14.335Z,3.40
2022-08-23T12:25:04.785Z,3.80
2022-08-23T12:27:39.498Z,3.70
2022-08-23T12:30:07.808Z,3.60
2022-08-23T12:32:58.463Z,3.00
2022-08-23T12:35:36.322Z,3.40
2022-08-23T12:38:29.428Z,3.50
2022-08-23T12:40:58.101Z,4.20
2022-08-23T12:43:30.487Z,3.70
2022-08-23T12:46:01.909Z,4.10
2022-08-23T12:48:45.668Z,3.30
2022-08-23T12:51:14.228Z,3.50
2022-08-23T12:53:46.177Z,3.60
2022-08-23T12:56:31.996Z,3.90
2022-08-23T12:59:08.409Z,3.70
2022-08-23T13:01:43.567Z,4.30
2022-08-23T13:04:16.648Z,3.70
2022-08-23T13:07:05.708Z,3.50
2022-08-23T13:09:40.173Z,4.00
2022-08-23T13:12:12.535Z,3.60
2022-08-23T13:14:43.105Z,3.50
2022-08-23T13:17:28.549Z,4.00
2022-08-23T13:20:07.921Z,3.70
2022-08-23T13:22:40.641Z,3.70
2022-08-23T13:25:31.382Z,4.10
2022-08-23T13:28:07.558Z,3.60
2022-08-23T13:30:39.483Z,3.70
2022-08-23T13:33:10.986Z,4.00
2022-08-23T13:35:49.701Z,3.40
2022-08-23T13:38:31.968Z,3.40
2022-08-23T13:41:13.218Z,4.50
2022-08-23T13:43:48.219Z,3.70
2022-08-23T13:46:30.175Z,3.30
2022-08-23T13:49:16.733Z,3.80
2022-08-23T13:54:53.048Z,4.20
2022-08-23T13:57:25.626Z,4.70
2022-08-23T13:59:59.498Z,13.70
2022-08-23T14:02:30.283Z,4.30
2022-08-23T14:04:59.611Z,4.60
2022-08-23T14:07:29.257Z,7.00
2022-08-23T14:09:59.216Z,4.90
2022-08-23T14:12:33.673Z,5.10
2022-08-23T14:15:06.397Z,3.80
2022-08-23T14:17:43.424Z,4.70
2022-08-23T14:23:11.470Z,4.00
2022-08-23T14:25:43.224Z,3.80
2022-08-23T14:28:14.262Z,3.70
2022-08-23T14:30:44.214Z,3.60
2022-08-23T14:33:14.969Z,4.70
2022-08-23T14:35:45.776Z,4.10
2022-08-23T14:38:16.263Z,4.10
2022-08-23T14:40:53.493Z,4.60
2022-08-23T14:43:23.101Z,4.10
2022-08-23T14:45:57.496Z,3.80
2022-08-23T14:48:27.655Z,3.90
2022-08-23T14:50:57.649Z,3.90
2022-08-23T14:53:30.289Z,3.60
2022-08-23T14:56:20.764Z,4.20
2022-08-23T14:58:50.604Z,3.90
2022-08-23T15:01:21.310Z,3.90
2022-08-23T15:03:51.875Z,3.90
2022-08-23T15:06:22.534Z,3.80
2022-08-23T15:08:52.290Z,4.10
2022-08-23T15:14:12.451Z,4.90
2022-08-23T15:16:42.156Z,4.10
2022-08-23T15:19:11.985Z,3.90
2022-08-23T15:21:41.842Z,3.70
2022-08-23T15:24:11.558Z,6.40
2022-08-23T15:26:41.571Z,3.40
2022-08-23T15:29:11.406Z,2.70
2022-08-23T15:31:40.768Z,2.60
2022-08-23T15:34:12.799Z,3.20
2022-08-23T15:36:42.616Z,2.30
2022-08-23T15:39:11.421Z,3.20
2022-08-23T15:41:41.361Z,2.50
2022-08-23T15:44:10.097Z,2.30
2022-08-23T15:46:39.660Z,2.60
2022-08-23T15:49:14.681Z,3.50
2022-08-23T15:54:12.113Z,3.60
2022-08-23T15:56:45.500Z,3.00
2022-08-23T15:59:17.255Z,4.10
2022-08-23T16:01:45.681Z,3.10
2022-08-23T16:04:14.352Z,3.10
2022-08-23T16:06:45.546Z,3.10
2022-08-23T16:09:21.135Z,3.30
2022-08-23T16:11:50.322Z,4.10
2022-08-23T16:14:18.958Z,4.00
2022-08-23T16:16:48.694Z,4.40
2022-08-23T16:19:17.361Z,4.20
2022-08-23T16:21:53.318Z,4.00
2022-08-23T16:24:24.536Z,4.00
2022-08-23T16:26:54.196Z,4.30
2022-08-23T16:29:22.923Z,3.70
2022-08-23T16:31:52.421Z,4.20
2022-08-23T16:34:20.890Z,4.00
2022-08-23T16:36:55.127Z,4.20
2022-08-23T16:39:24.178Z,4.30
2022-08-23T16:41:52.812Z,5.80
2022-08-23T16:44:21.623Z,5.50
2022-08-23T16:46:52.069Z,6.70
2022-08-23T16:49:20.977Z,6.30
2022-08-23T16:51:50.393Z,5.20
2022-08-23T16:54:19.591Z,6.10
2022-08-23T16:56:48.257Z,5.00
2022-08-23T16:59:16.686Z,5.40
2022-08-23T17:01:48.640Z,6.10
2022-08-23T17:04:18.740Z,6.70
2022-08-23T17:06:48.208Z,6.20
2022-08-23T17:09:16.956Z,6.50
2022-08-23T17:11:46.771Z,6.90
2022-08-23T17:14:15.918Z,7.00
2022-08-23T17:16:45.278Z,6.80
2022-08-23T17:19:14.664Z,7.10
2022-08-23T17:21:43.530Z,7.20
2022-08-23T17:24:11.761Z,7.20
2022-08-23T17:26:40.129Z,6.60
2022-08-23T17:29:09.954Z,8.10
2022-08-23T17:31:38.878Z,7.40
2022-08-23T17:34:07.680Z,7.10
2022-08-23T17:36:48.897Z,6.40
2022-08-23T17:39:22.516Z,6.00
2022-08-23T17:41:51.037Z,6.80
2022-08-23T17:44:20.430Z,7.10
2022-08-23T17:46:49.531Z,6.20
2022-08-23T17:49:18.933Z,6.40
2022-08-23T17:51:49.938Z,6.40
2022-08-23T17:54:18.694Z,6.60
2022-08-23T17:56:49.909Z,4.60
2022-08-23T17:59:20.149Z,5.40
2022-08-23T18:01:48.094Z,4.10
2022-08-23T18:04:16.343Z,5.00
2022-08-23T18:06:44.872Z,3.80
2022-08-23T18:09:12.943Z,4.70
2022-08-23T18:11:41.040Z,4.70
2022-08-23T18:14:09.593Z,3.40
2022-08-23T18:16:38.693Z,3.90
2022-08-23T18:19:12.992Z,4.50
2022-08-23T18:21:43.103Z,3.50
2022-08-23T18:24:11.468Z,3.90
2022-08-23T18:26:58.481Z,3.90
2022-08-23T18:29:27.600Z,5.30
2022-08-23T18:31:55.941Z,5.10
2022-08-23T18:34:24.265Z,5.00
2022-08-23T18:36:53.886Z,5.80
2022-08-23T18:39:31.392Z,6.20
2022-08-23T18:42:01.791Z,6.40
2022-08-23T18:44:30.403Z,6.50
2022-08-23T18:47:00.088Z,6.80
2022-08-23T18:49:28.965Z,7.10
2022-08-23T18:51:57.038Z,8.30
2022-08-23T18:54:25.281Z,5.90
2022-08-23T18:56:53.492Z,5.70
2022-08-23T18:59:21.511Z,5.30
2022-08-23T19:01:49.725Z,5.20
2022-08-23T19:04:18.381Z,5.30
2022-08-23T19:06:47.109Z,4.90
2022-08-23T19:09:15.181Z,4.50
2022-08-23T19:11:44.498Z,4.70
2022-08-23T19:14:12.904Z,4.10
2022-08-23T19:16:47.242Z,5.10
2022-08-23T19:19:17.154Z,5.30
2022-08-23T19:21:45.500Z,5.80
2022-08-23T19:24:13.712Z,4.70
2022-08-23T19:26:44.705Z,4.70
2022-08-23T19:29:16.373Z,5.40
2022-08-23T19:31:48.274Z,6.70
2022-08-23T19:34:19.741Z,7.70
2022-08-23T19:36:53.592Z,6.90
2022-08-23T19:39:30.507Z,7.50
2022-08-23T19:41:58.712Z,7.70
2022-08-23T19:44:28.206Z,7.10
2022-08-23T19:46:56.250Z,5.70
2022-08-23T19:49:24.802Z,5.20
2022-08-23T19:51:52.863Z,4.90
2022-08-23T19:54:21.470Z,5.80
2022-08-23T19:56:52.422Z,6.60
2022-08-23T19:59:24.618Z,6.10
2022-08-23T20:01:55.160Z,6.40
2022-08-23T20:04:25.319Z,6.60
2022-08-23T20:06:53.592Z,7.00
2022-08-23T20:09:22.593Z,7.50
2022-08-23T20:11:55.457Z,6.90
2022-08-23T20:14:25.089Z,6.40
2022-08-23T20:16:54.450Z,7.10
2022-08-23T20:19:22.745Z,6.80
2022-08-23T20:21:51.216Z,6.90
2022-08-23T20:24:32.614Z,7.10
2022-08-23T20:27:07.483Z,6.60
2022-08-23T20:29:39.847Z,6.80
2022-08-23T20:32:08.969Z,8.50
2022-08-23T20:34:37.693Z,8.10
2022-08-23T20:37:06.085Z,7.60
2022-08-23T20:39:33.999Z,7.20
2022-08-23T20:42:02.340Z,6.90
2022-08-23T20:44:30.368Z,7.10
2022-08-23T20:47:02.807Z,7.40
2022-08-23T20:49:31.366Z,6.70
2022-08-23T20:51:59.316Z,6.60
2022-08-23T20:54:27.607Z,6.40
2022-08-23T20:56:56.120Z,6.30
2022-08-23T20:59:24.229Z,7.20
2022-08-23T21:01:52.330Z,6.00
2022-08-23T21:04:21.108Z,6.00
2022-08-23T21:06:52.153Z,6.40
2022-08-23T21:09:24.709Z,6.00
2022-08-23T21:11:57.828Z,6.60
2022-08-23T21:14:25.916Z,6.50
2022-08-23T21:16:54.062Z,6.50
2022-08-23T21:19:22.072Z,5.90
2022-08-23T21:21:50.304Z,6.40
2022-08-23T21:24:18.337Z,6.60
2022-08-23T21:26:46.255Z,5.80
2022-08-23T21:29:14.221Z,5.50
2022-08-23T21:31:42.235Z,5.50
2022-08-23T21:34:10.207Z,5.80
2022-08-23T21:36:38.604Z,5.30
2022-08-23T21:39:06.683Z,5.70
2022-08-23T21:41:39.913Z,5.50
2022-08-23T21:44:14.758Z,5.60
2022-08-23T21:46:44.014Z,6.40
2022-08-23T21:49:12.850Z,5.80
2022-08-23T21:51:42.123Z,5.90
2022-08-23T21:54:11.797Z,5.50
2022-08-23T21:56:39.967Z,5.50
2022-08-23T21:59:12.470Z,5.70
2022-08-23T22:01:42.986Z,6.60
2022-08-23T22:04:14.180Z,6.10
2022-08-23T22:06:45.159Z,6.10
2022-08-23T22:09:16.772Z,5.90
2022-08-23T22:11:46.757Z,6.40
2022-08-23T22:14:20.975Z,7.20
2022-08-23T22:16:55.275Z,6.90
2022-08-23T22:19:24.270Z,6.70
2022-08-23T22:21:53.252Z,7.00
2022-08-23T22:24:25.599Z,7.40
2022-08-23T22:26:55.632Z,8.30
2022-08-23T22:29:24.898Z,7.60
2022-08-23T22:31:52.986Z,7.50
2022-08-23T22:34:21.338Z,5.70
2022-08-23T22:36:51.933Z,5.10
2022-08-23T22:39:22.744Z,5.80
2022-08-23T22:41:50.854Z,5.40
2022-08-23T22:44:18.879Z,6.00
2022-08-23T22:46:47.724Z,5.60
2022-08-23T22:49:16.808Z,5.30
2022-08-23T22:51:44.819Z,5.10
2022-08-23T22:54:14.518Z,5.80
2022-08-23T22:56:48.685Z,6.20
2022-08-23T22:59:18.796Z,6.00
2022-08-23T23:01:52.388Z,5.40
2022-08-23T23:04:23.160Z,5.40
2022-08-23T23:06:51.513Z,5.90
2022-08-23T23:09:19.867Z,5.90
2022-08-23T23:11:48.363Z,5.80
2022-08-23T23:14:18.618Z,5.30
2022-08-23T23:16:49.350Z,6.30
2022-08-23T23:19:36.886Z,5.20
2022-08-23T23:22:07.950Z,5.60
2022-08-23T23:24:39.663Z,5.60
2022-08-23T23:27:08.577Z,5.20
2022-08-23T23:29:36.598Z,4.40
2022-08-23T23:32:05.860Z,5.50
2022-08-23T23:34:34.823Z,4.30
2022-08-23T23:37:02.803Z,5.00
2022-08-23T23:39:30.820Z,5.00
2022-08-23T23:41:58.893Z,5.00
2022-08-23T23:44:31.142Z,5.20
2022-08-23T23:47:03.179Z,5.10
2022-08-23T23:49:33.510Z,4.70
2022-08-23T23:52:07.451Z,5.30
2022-08-23T23:54:35.768Z,4.90
2022-08-23T23:57:05.950Z,4.80
2022-08-23T23:59:34.646Z,5.10
